createdAt,value
2023-05-28T00:08:30.650Z,10.45
2023-05-28T00:11:58.643Z,9.93
2023-05-28T00:15:01.673Z,10.13
2023-05-28T00:18:06.321Z,8.13
2023-05-28T00:21:10.095Z,8.10
2023-05-28T00:24:13.556Z,7.45
2023-05-28T00:27:16.766Z,7.10
2023-05-28T00:30:20.465Z,6.50
2023-05-28T00:33:24.250Z,7.10
2023-05-28T00:36:27.267Z,7.67
2023-05-28T00:39:31.154Z,7.55
2023-05-28T00:42:35.231Z,6.82
2023-05-28T00:45:39.080Z,7.80
2023-05-28T00:48:43.421Z,7.53
2023-05-28T00:51:47.410Z,7.23
2023-05-28T00:54:52.422Z,7.60
2023-05-28T00:57:57.637Z,7.65
2023-05-28T01:01:01.968Z,7.20
2023-05-28T01:04:05.812Z,6.03
2023-05-28T01:07:10.260Z,5.60
2023-05-28T01:10:14.112Z,5.10
2023-05-28T01:13:18.291Z,4.90
2023-05-28T01:16:24.559Z,3.85
2023-05-28T01:19:29.177Z,4.00
2023-05-28T01:22:39.533Z,3.33
2023-05-28T01:25:47.172Z,2.88
2023-05-28T01:28:51.538Z,1.50
2023-05-28T01:31:55.216Z,1.80
2023-05-28T01:34:59.114Z,2.17
2023-05-28T01:38:05.794Z,1.87
2023-05-28T01:41:09.775Z,1.77
2023-05-28T01:44:18.954Z,1.85
2023-05-28T01:47:22.592Z,1.50
2023-05-28T01:50:27.685Z,1.83
2023-05-28T01:53:30.972Z,1.53
2023-05-28T01:56:34.137Z,1.95
2023-05-28T01:59:39.635Z,1.67
2023-05-28T02:02:44.447Z,1.80
2023-05-28T02:05:51.948Z,1.65
2023-05-28T02:08:55.177Z,1.40
2023-05-28T02:12:00.713Z,2.22
2023-05-28T02:15:04.515Z,1.50
2023-05-28T02:18:08.005Z,1.75
2023-05-28T02:21:11.632Z,1.65
2023-05-28T02:24:15.134Z,1.40
2023-05-28T02:27:19.828Z,1.48
2023-05-28T02:30:23.068Z,1.63
2023-05-28T02:33:25.999Z,1.48
2023-05-28T02:36:31.845Z,1.85
2023-05-28T02:39:34.792Z,1.60
2023-05-28T02:42:38.573Z,2.10
2023-05-28T02:45:41.660Z,2.10
2023-05-28T02:48:46.631Z,2.20
2023-05-28T02:51:53.872Z,2.47
2023-05-28T02:55:03.922Z,1.97
2023-05-28T02:58:07.763Z,2.35
2023-05-28T03:01:11.540Z,1.75
2023-05-28T03:04:14.609Z,2.30
2023-05-28T03:07:19.383Z,2.15
2023-05-28T03:10:22.516Z,2.00
2023-05-28T03:13:26.200Z,2.10
2023-05-28T03:16:30.192Z,2.17
2023-05-28T03:19:34.668Z,1.88
2023-05-28T03:22:39.615Z,2.60
2023-05-28T03:25:43.697Z,2.50
2023-05-28T03:28:47.384Z,3.88
2023-05-28T03:32:17.339Z,2.70
2023-05-28T03:35:20.878Z,2.15
2023-05-28T03:38:25.689Z,1.88
2023-05-28T03:41:29.717Z,2.50
2023-05-28T03:44:35.727Z,2.70
2023-05-28T03:47:40.139Z,1.50
2023-05-28T03:50:44.779Z,2.20
2023-05-28T03:53:48.636Z,2.08
2023-05-28T03:56:52.705Z,3.60
2023-05-28T03:59:58.944Z,2.75
2023-05-28T04:03:03.063Z,1.88
2023-05-28T04:06:08.664Z,2.10
2023-05-28T04:09:12.610Z,1.80
2023-05-28T04:12:16.681Z,1.70
2023-05-28T04:15:21.058Z,1.65
2023-05-28T04:18:24.816Z,1.70
2023-05-28T04:21:30.875Z,1.60
2023-05-28T04:24:36.719Z,1.80
2023-05-28T04:27:42.956Z,2.00
2023-05-28T04:30:46.409Z,2.30
2023-05-28T04:33:51.078Z,2.70
2023-05-28T04:36:54.894Z,3.08
2023-05-28T04:39:59.353Z,1.67
2023-05-28T04:43:03.964Z,1.90
2023-05-28T04:46:10.615Z,1.50
2023-05-28T04:49:14.069Z,2.35
2023-05-28T04:52:18.868Z,2.88
2023-05-28T04:55:22.671Z,2.00
2023-05-28T04:58:27.209Z,2.30
2023-05-28T05:01:37.440Z,1.60
2023-05-28T05:04:41.678Z,1.40
2023-05-28T05:07:45.356Z,1.70
2023-05-28T05:10:50.997Z,1.60
2023-05-28T05:13:55.138Z,2.73
2023-05-28T05:17:00.280Z,2.60
2023-05-28T05:20:06.774Z,3.92
2023-05-28T05:23:11.886Z,2.70
2023-05-28T05:26:20.379Z,1.90
2023-05-28T05:29:24.771Z,2.03
2023-05-28T05:32:29.081Z,7.07
2023-05-28T05:35:34.030Z,5.82
2023-05-28T05:39:01.200Z,2.70
2023-05-28T05:42:23.416Z,2.22
2023-05-28T05:45:30.636Z,2.30
2023-05-28T05:48:34.361Z,2.15
2023-05-28T05:51:37.821Z,3.63
2023-05-28T05:54:42.378Z,3.20
2023-05-28T05:57:47.459Z,4.13
2023-05-28T06:00:51.536Z,1.93
2023-05-28T06:03:57.675Z,1.55
2023-05-28T06:07:08.691Z,1.80
2023-05-28T06:10:28.673Z,6.03
2023-05-28T06:13:32.203Z,1.98
2023-05-28T06:16:35.911Z,1.90
2023-05-28T06:19:40.818Z,2.03
2023-05-28T06:22:44.144Z,1.63
2023-05-28T06:25:48.288Z,2.60
2023-05-28T06:28:51.593Z,2.40
2023-05-28T06:31:56.302Z,2.80
2023-05-28T06:34:59.379Z,1.60
2023-05-28T06:38:04.116Z,1.70
2023-05-28T06:41:08.043Z,1.92
2023-05-28T06:44:19.329Z,1.60
2023-05-28T06:47:31.040Z,1.33
2023-05-28T06:50:35.546Z,3.90
2023-05-28T06:53:40.586Z,3.55
2023-05-28T06:56:44.500Z,2.75
2023-05-28T07:00:11.926Z,6.03
2023-05-28T07:03:24.608Z,6.97
2023-05-28T07:06:57.612Z,3.28
2023-05-28T07:10:06.876Z,2.33
2023-05-28T07:13:10.980Z,3.47
2023-05-28T07:16:15.585Z,3.72
2023-05-28T07:19:21.007Z,3.43
2023-05-28T07:22:27.215Z,3.30
2023-05-28T07:25:30.908Z,4.55
2023-05-28T07:28:34.564Z,3.95
2023-05-28T07:31:40.096Z,2.53
2023-05-28T07:34:47.085Z,1.97
2023-05-28T07:37:50.865Z,2.60
2023-05-28T07:40:55.021Z,2.90
2023-05-28T07:44:04.209Z,3.47
2023-05-28T07:47:08.034Z,3.97
2023-05-28T07:50:30.576Z,3.80
2023-05-28T07:53:43.439Z,2.65
2023-05-28T07:56:52.031Z,2.53
2023-05-28T08:00:17.840Z,3.00
2023-05-28T08:03:29.977Z,6.47
2023-05-28T08:06:38.038Z,5.23
2023-05-28T08:09:45.509Z,4.93
2023-05-28T08:12:53.723Z,3.50
2023-05-28T08:16:02.664Z,2.70
2023-05-28T08:19:20.565Z,4.57
2023-05-28T08:22:27.546Z,3.53
2023-05-28T08:25:31.337Z,3.70
2023-05-28T08:28:42.192Z,3.83
2023-05-28T08:31:45.410Z,2.85
2023-05-28T08:35:03.511Z,2.00
2023-05-28T08:38:07.288Z,1.90
2023-05-28T08:41:19.257Z,2.75
2023-05-28T08:44:23.068Z,4.72
2023-05-28T08:47:28.711Z,5.70
2023-05-28T08:50:49.636Z,4.70
2023-05-28T08:54:02.532Z,2.73
2023-05-28T08:57:07.886Z,3.30
2023-05-28T09:00:21.032Z,3.00
2023-05-28T09:03:56.857Z,3.72
2023-05-28T09:07:04.056Z,4.20
2023-05-28T09:10:16.351Z,2.40
2023-05-28T09:13:22.541Z,2.28
2023-05-28T09:16:28.609Z,2.38
2023-05-28T09:19:53.492Z,3.80
2023-05-28T09:23:05.683Z,3.20
2023-05-28T09:26:39.199Z,1.97
2023-05-28T09:30:12.113Z,2.90
2023-05-28T09:33:20.356Z,2.50
2023-05-28T09:36:24.318Z,3.20
2023-05-28T09:39:28.376Z,3.70
2023-05-28T09:42:41.377Z,3.40
2023-05-28T09:45:45.232Z,3.05
2023-05-28T09:48:50.208Z,2.97
2023-05-28T09:51:56.076Z,5.28
2023-05-28T09:55:01.996Z,5.70
2023-05-28T09:58:07.131Z,6.20
2023-05-28T10:01:15.101Z,5.15
2023-05-28T10:04:21.399Z,2.83
2023-05-28T10:07:29.648Z,2.60
2023-05-28T10:10:34.479Z,3.50
2023-05-28T10:13:38.595Z,3.10
2023-05-28T10:16:42.205Z,4.80
2023-05-28T10:19:49.476Z,6.18
2023-05-28T10:22:53.344Z,4.65
2023-05-28T10:25:57.055Z,3.90
2023-05-28T10:29:01.749Z,3.53
2023-05-28T10:32:06.965Z,4.18
2023-05-28T10:35:14.260Z,4.40
2023-05-28T10:38:18.228Z,4.50
2023-05-28T10:41:23.568Z,6.73
2023-05-28T10:44:27.585Z,3.70
2023-05-28T10:47:36.402Z,3.50
2023-05-28T10:50:59.466Z,3.80
2023-05-28T10:54:16.020Z,4.30
2023-05-28T10:57:21.514Z,4.40
2023-05-28T11:00:26.613Z,5.33
2023-05-28T11:03:45.332Z,5.00
2023-05-28T11:06:49.191Z,5.60
2023-05-28T11:09:54.046Z,4.22
2023-05-28T11:12:58.196Z,3.87
2023-05-28T11:16:13.280Z,4.00
2023-05-28T11:19:17.056Z,2.70
2023-05-28T11:22:22.075Z,2.72
2023-05-28T11:25:28.626Z,3.03
2023-05-28T11:28:33.154Z,2.90
2023-05-28T11:31:41.995Z,2.90
2023-05-28T11:34:46.132Z,2.35
2023-05-28T11:37:49.795Z,2.60
2023-05-28T11:41:03.533Z,2.70
2023-05-28T11:44:23.623Z,2.80
2023-05-28T11:47:30.601Z,2.80
2023-05-28T11:50:34.346Z,4.78
2023-05-28T11:53:45.652Z,6.70
2023-05-28T11:56:54.338Z,4.05
2023-05-28T12:00:14.208Z,4.37
2023-05-28T12:03:17.227Z,5.80
2023-05-28T12:06:32.352Z,7.38
2023-05-28T12:09:39.556Z,6.47
2023-05-28T12:12:47.622Z,9.82
2023-05-28T12:15:51.286Z,14.10
2023-05-28T12:19:03.403Z,20.00
2023-05-28T12:22:16.388Z,10.13
2023-05-28T12:25:20.328Z,6.57
2023-05-28T12:28:25.194Z,7.00
2023-05-28T12:31:30.889Z,5.57
2023-05-28T12:34:34.545Z,4.67
2023-05-28T12:37:37.752Z,5.90
2023-05-28T12:40:41.034Z,7.50
2023-05-28T12:43:44.950Z,6.90
2023-05-28T12:46:48.687Z,3.90
2023-05-28T12:49:52.046Z,7.03
2023-05-28T12:52:54.911Z,7.00
2023-05-28T12:55:57.922Z,7.40
2023-05-28T12:59:01.521Z,6.53
2023-05-28T13:02:05.703Z,5.77
2023-05-28T13:05:10.379Z,4.10
2023-05-28T13:08:14.305Z,3.35
2023-05-28T13:11:17.339Z,3.03
2023-05-28T13:14:21.403Z,3.00
2023-05-28T13:17:25.202Z,2.50
2023-05-28T13:20:29.142Z,2.70
2023-05-28T13:23:32.433Z,5.00
2023-05-28T13:26:37.110Z,14.00
2023-05-28T13:29:41.924Z,18.02
2023-05-28T13:32:45.246Z,15.77
2023-05-28T13:35:48.259Z,18.80
2023-05-28T13:38:52.549Z,18.15
2023-05-28T13:41:56.517Z,19.25
2023-05-28T13:45:00.240Z,16.17
2023-05-28T13:48:04.281Z,18.57
2023-05-28T13:51:09.347Z,7.33
2023-05-28T13:54:13.467Z,8.55
2023-05-28T13:57:19.928Z,10.23
2023-05-28T14:00:37.258Z,16.67
2023-05-28T14:03:47.122Z,16.77
2023-05-28T14:06:50.112Z,22.50
2023-05-28T14:09:54.286Z,18.85
2023-05-28T14:12:57.935Z,18.88
2023-05-28T14:16:01.767Z,23.02
2023-05-28T14:19:05.402Z,11.23
2023-05-28T14:22:09.486Z,8.47
2023-05-28T14:25:13.213Z,8.45
2023-05-28T14:28:17.260Z,6.45
2023-05-28T14:31:21.108Z,6.53
2023-05-28T14:34:24.710Z,5.50
2023-05-28T14:37:29.122Z,5.47
2023-05-28T14:40:33.330Z,4.78
2023-05-28T14:43:37.071Z,4.68
2023-05-28T14:46:41.952Z,4.35
2023-05-28T14:49:45.804Z,5.63
2023-05-28T14:52:48.666Z,8.63
2023-05-28T14:55:53.320Z,23.65
2023-05-28T14:58:57.292Z,28.10
2023-05-28T15:02:00.924Z,29.83
2023-05-28T15:05:07.771Z,28.83
2023-05-28T15:08:12.017Z,27.77
2023-05-28T15:11:18.494Z,23.27
2023-05-28T15:14:22.774Z,22.13
2023-05-28T15:17:27.144Z,21.55
2023-05-28T15:20:31.022Z,24.17
2023-05-28T15:23:35.187Z,25.30
2023-05-28T15:26:38.949Z,23.05
2023-05-28T15:29:45.291Z,17.73
2023-05-28T15:32:49.630Z,15.75
2023-05-28T15:35:54.065Z,14.67
2023-05-28T15:38:58.133Z,15.47
2023-05-28T15:42:07.028Z,13.30
2023-05-28T15:45:11.815Z,13.45
2023-05-28T15:48:14.815Z,13.18
2023-05-28T15:51:17.754Z,12.60
2023-05-28T15:54:20.729Z,12.27
2023-05-28T15:57:24.475Z,10.10
2023-05-28T16:00:27.768Z,10.30
2023-05-28T16:03:31.260Z,10.00
2023-05-28T16:06:35.175Z,9.80
2023-05-28T16:09:39.633Z,9.83
2023-05-28T16:12:43.420Z,9.35
2023-05-28T16:15:47.829Z,8.77
2023-05-28T16:18:52.129Z,8.52
2023-05-28T16:21:55.225Z,7.40
2023-05-28T16:24:59.972Z,6.10
2023-05-28T16:28:03.275Z,7.80
2023-05-28T16:31:07.525Z,5.85
2023-05-28T16:34:11.349Z,6.03
2023-05-28T16:37:24.175Z,6.37
2023-05-28T16:40:53.681Z,6.37
2023-05-28T16:43:57.639Z,6.45
2023-05-28T16:47:01.945Z,6.88
2023-05-28T16:50:05.877Z,5.43
2023-05-28T16:53:12.930Z,4.87
2023-05-28T16:56:15.835Z,3.17
2023-05-28T16:59:19.620Z,3.00
2023-05-28T17:02:23.556Z,2.78
2023-05-28T17:05:27.113Z,2.50
2023-05-28T17:08:31.559Z,2.20
2023-05-28T17:11:35.426Z,2.20
2023-05-28T17:14:38.990Z,1.85
2023-05-28T17:17:42.424Z,2.00
2023-05-28T17:20:46.401Z,2.15
2023-05-28T17:23:50.184Z,2.03
2023-05-28T17:26:53.972Z,2.30
2023-05-28T17:29:57.640Z,2.25
2023-05-28T17:33:01.440Z,2.13
2023-05-28T17:36:05.300Z,2.00
2023-05-28T17:39:09.168Z,1.90
2023-05-28T17:42:12.517Z,2.10
2023-05-28T17:45:15.606Z,2.20
2023-05-28T17:48:21.843Z,2.13
2023-05-28T17:51:25.924Z,2.10
2023-05-28T17:54:29.356Z,2.30
2023-05-28T17:57:32.993Z,2.10
2023-05-28T18:00:36.410Z,1.95
2023-05-28T18:03:39.468Z,2.35
2023-05-28T18:06:42.817Z,2.17
2023-05-28T18:09:46.539Z,2.10
2023-05-28T18:12:49.784Z,2.43
2023-05-28T18:15:52.764Z,2.50
2023-05-28T18:19:02.694Z,2.22
2023-05-28T18:22:06.375Z,2.35
2023-05-28T18:25:09.772Z,1.90
2023-05-28T18:28:14.004Z,2.03
2023-05-28T18:31:18.026Z,2.30
2023-05-28T18:34:21.069Z,1.90
2023-05-28T18:37:25.062Z,1.80
2023-05-28T18:40:28.338Z,2.00
2023-05-28T18:43:32.462Z,1.53
2023-05-28T18:46:35.682Z,1.60
2023-05-28T18:49:39.883Z,1.45
2023-05-28T18:52:46.556Z,2.60
2023-05-28T18:55:51.741Z,2.00
2023-05-28T18:58:55.509Z,2.30
2023-05-28T19:01:59.620Z,2.17
2023-05-28T19:05:04.634Z,2.60
2023-05-28T19:08:08.349Z,2.70
2023-05-28T19:11:13.106Z,3.30
2023-05-28T19:14:16.229Z,3.10
2023-05-28T19:17:19.177Z,3.75
2023-05-28T19:20:22.309Z,3.55
2023-05-28T19:23:25.344Z,4.43
2023-05-28T19:26:28.740Z,3.23
2023-05-28T19:29:31.780Z,3.63
2023-05-28T19:32:35.276Z,2.53
2023-05-28T19:35:38.348Z,2.45
2023-05-28T19:38:41.705Z,2.20
2023-05-28T19:41:46.156Z,2.43
2023-05-28T19:44:49.889Z,2.07
2023-05-28T19:47:53.316Z,2.05
2023-05-28T19:50:56.696Z,2.00
2023-05-28T19:53:59.900Z,2.00
2023-05-28T19:57:03.920Z,2.03
2023-05-28T20:00:10.199Z,1.83
2023-05-28T20:03:16.598Z,1.48
2023-05-28T20:06:19.648Z,1.92
2023-05-28T20:09:22.782Z,1.45
2023-05-28T20:12:26.699Z,1.70
2023-05-28T20:15:29.765Z,1.70
2023-05-28T20:18:32.843Z,2.00
2023-05-28T20:21:37.188Z,1.80
2023-05-28T20:24:41.484Z,2.38
2023-05-28T20:27:45.127Z,2.37
2023-05-28T20:30:49.138Z,2.13
2023-05-28T20:33:52.729Z,1.83
2023-05-28T20:36:56.284Z,3.72
2023-05-28T20:40:01.495Z,7.43
2023-05-28T20:43:05.602Z,5.67
2023-05-28T20:46:09.946Z,2.70
2023-05-28T20:49:14.638Z,2.67
2023-05-28T20:52:18.468Z,1.85
2023-05-28T20:55:21.740Z,1.90
2023-05-28T21:01:38.986Z,1.90
2023-05-28T21:04:41.887Z,1.88
2023-05-28T21:07:44.824Z,1.80
2023-05-28T21:10:47.817Z,1.60
2023-05-28T21:13:51.131Z,1.80
2023-05-28T21:16:54.221Z,1.77
2023-05-28T21:19:57.832Z,1.90
2023-05-28T21:23:00.968Z,2.20
2023-05-28T21:26:04.028Z,2.22
2023-05-28T21:29:09.544Z,2.10
2023-05-28T21:32:13.192Z,2.10
2023-05-28T21:35:17.588Z,2.40
2023-05-28T21:38:21.681Z,2.05
2023-05-28T21:41:25.751Z,1.80
2023-05-28T21:44:30.581Z,2.30
2023-05-28T21:47:35.809Z,2.20
2023-05-28T21:50:38.951Z,2.30
2023-05-28T21:53:42.639Z,2.22
2023-05-28T21:56:45.681Z,2.15
2023-05-28T21:59:48.678Z,2.40
2023-05-28T22:02:51.887Z,2.33
2023-05-28T22:05:56.088Z,2.20
2023-05-28T22:08:59.250Z,2.70
2023-05-28T22:12:03.202Z,1.95
2023-05-28T22:15:07.685Z,2.00
2023-05-28T22:18:15.666Z,1.67
2023-05-28T22:21:19.474Z,1.70
2023-05-28T22:24:23.706Z,1.63
2023-05-28T22:27:27.353Z,1.63
2023-05-28T22:30:31.449Z,1.60
2023-05-28T22:33:35.153Z,1.97
2023-05-28T22:36:38.803Z,2.67
2023-05-28T22:39:43.686Z,1.85
2023-05-28T22:42:47.803Z,1.80
2023-05-28T22:45:52.368Z,2.00
2023-05-28T22:48:58.813Z,1.50
2023-05-28T22:52:05.516Z,2.05
2023-05-28T22:55:12.003Z,2.20
2023-05-28T22:58:15.418Z,2.10
2023-05-28T23:01:18.949Z,3.50
2023-05-28T23:04:22.124Z,2.57
2023-05-28T23:07:26.279Z,3.40
2023-05-28T23:10:30.267Z,1.95
2023-05-28T23:13:34.548Z,2.80
2023-05-28T23:16:37.593Z,2.72
2023-05-28T23:19:42.986Z,1.87
2023-05-28T23:22:47.285Z,1.40
2023-05-28T23:25:51.473Z,1.30
2023-05-28T23:28:55.619Z,1.30
2023-05-28T23:31:59.142Z,1.80
2023-05-28T23:35:05.390Z,1.47
2023-05-28T23:38:09.701Z,1.40
2023-05-28T23:41:12.721Z,1.20
2023-05-28T23:44:16.960Z,1.50
2023-05-28T23:47:20.152Z,1.80
2023-05-28T23:50:24.294Z,1.70
2023-05-28T23:53:27.249Z,1.50
2023-05-28T23:56:30.961Z,1.50
2023-05-28T23:59:34.981Z,1.45
